»·PEaware :: N799DS KSBA-KVNY

N799DS :: KSBA-KVNY

FLIGHT INFORMATION

Flight Status: Arrived
Operator: Privately registered:
United States
More flights under this callsign
Pilot: Wolfgang B. (15069)
Aircraft: CIRRUS SR-22
(SR22)
More flights by this aircraft type
Origin: KSBA Santa Barbara Mun
United States
Destination: KVNY Van Nuys
United States
More flights between these airports :: More routes between these airports
Route: KWANG CMA CMA072R GINNA
File this flight plan on PilotEdge
Remarks:
Altitude:
(Current/Filed)
5,000ft
Speed:
(Current/Filed)
170kts
Departed: 09-May-20 01:55 PM
Arrived: 09-May-20 02:33 PM
Distance/Time
Traveled:
68nm/0:38
Distance/Time
To Go:
Arrived

Flight Plot

Page will automatically refresh every two minutes.


Map Options




Map Legend


Flown Route
Filed Route
Departure Airport
Arrival Airport
Navaid (VOR, NDB)
Fix

Horizontal Profiles

Position Reports

Time Latitude Longitude Heading Altitude Ground
Speed
09-May-20 13:21 34.432679 -119.835501 166 13ft 0kts
09-May-20 13:22 34.432679 -119.835501 166 13ft 0kts
09-May-20 13:23 34.432679 -119.835501 166 13ft 0kts
09-May-20 13:24 34.432679 -119.835501 166 13ft 0kts
09-May-20 13:25 34.432679 -119.835501 166 13ft 0kts
09-May-20 13:26 34.432679 -119.835501 166 13ft 0kts
09-May-20 13:27 34.432679 -119.835501 166 13ft 0kts
09-May-20 13:28 34.432679 -119.835501 166 13ft 0kts
09-May-20 13:29 34.432679 -119.835501 166 13ft 0kts
09-May-20 13:30 34.432679 -119.835501 166 13ft 0kts
09-May-20 13:31 34.432679 -119.835501 166 13ft 0kts
09-May-20 13:32 34.432679 -119.835501 166 13ft 0kts
09-May-20 13:33 34.432679 -119.835501 166 13ft 0kts
09-May-20 13:34 34.432679 -119.835501 166 13ft 0kts
09-May-20 13:35 34.432679 -119.835501 166 13ft 0kts
09-May-20 13:36 34.432679 -119.835501 166 13ft 0kts
09-May-20 13:37 34.432679 -119.835501 166 13ft 0kts
09-May-20 13:38 34.432679 -119.835501 166 13ft 0kts
09-May-20 13:39 34.432679 -119.835501 166 13ft 0kts
09-May-20 13:40 34.432679 -119.835501 166 13ft 0kts
09-May-20 13:41 34.432679 -119.835501 166 13ft 0kts
09-May-20 13:42 34.432679 -119.835501 166 13ft 0kts
09-May-20 13:43 34.432679 -119.835501 166 13ft 0kts
09-May-20 13:44 34.431852 -119.835961 240 13ft 10kts
09-May-20 13:45 34.430843 -119.839442 247 13ft 0kts
09-May-20 13:46 34.430843 -119.839442 247 13ft 0kts
09-May-20 13:47 34.430843 -119.839442 247 13ft 0kts
09-May-20 13:48 34.430843 -119.839442 247 13ft 0kts
09-May-20 13:50 34.430843 -119.839442 247 13ft 0kts
09-May-20 13:51 34.430843 -119.839442 247 13ft 0kts
09-May-20 13:52 34.430843 -119.839442 247 13ft 0kts
09-May-20 13:53 34.430843 -119.839442 247 13ft 0kts
09-May-20 13:54 34.430514 -119.840206 196 13ft 16kts
09-May-20 13:55 34.416994 -119.834871 159 450ft 97kts
09-May-20 13:56 34.389696 -119.824588 163 1864ft 118kts
09-May-20 13:57 34.357537 -119.812220 163 3128ft 135kts
09-May-20 13:58 34.318112 -119.797487 165 3012ft 155kts
09-May-20 13:59 34.279866 -119.774761 108 3034ft 169kts
09-May-20 14:00 34.279597 -119.727142 98 4919ft 136kts
09-May-20 14:01 34.274862 -119.673688 100 5017ft 173kts
09-May-20 14:02 34.268722 -119.614072 99 5014ft 181kts
09-May-20 14:03 34.262230 -119.553036 97 5012ft 184kts
09-May-20 14:04 34.255687 -119.491670 96 5011ft 184kts
09-May-20 14:05 34.249130 -119.430188 96 5011ft 184kts
09-May-20 14:05 34.243602 -119.378925 96 5010ft 184kts
09-May-20 14:07 34.235836 -119.307285 96 5008ft 183kts
09-May-20 14:08 34.229167 -119.245879 97 5007ft 184kts
09-May-20 14:08 34.223595 -119.194690 98 5006ft 185kts
09-May-20 14:09 34.216791 -119.132728 99 5004ft 185kts
09-May-20 14:10 34.213665 -119.070607 91 4993ft 185kts
09-May-20 14:12 34.216370 -118.998342 90 4992ft 183kts
09-May-20 14:12 34.218413 -118.947081 90 4992ft 183kts
09-May-20 14:13 34.220833 -118.885769 90 4992ft 182kts
09-May-20 14:14 34.222558 -118.824819 94 4992ft 180kts
09-May-20 14:15 34.220422 -118.764433 95 5022ft 177kts
09-May-20 14:16 34.235210 -118.711310 42 5032ft 183kts
09-May-20 14:17 34.274055 -118.671446 41 5026ft 183kts
09-May-20 14:18 34.313138 -118.632062 41 5023ft 182kts
09-May-20 14:19 34.352360 -118.593006 41 5020ft 181kts
09-May-20 14:20 34.401362 -118.590748 351 5020ft 184kts
09-May-20 14:21 34.452065 -118.599862 352 5020ft 184kts
09-May-20 14:22 34.483362 -118.558937 89 5015ft 173kts
09-May-20 14:23 34.452636 -118.519038 142 5017ft 166kts
09-May-20 14:24 34.408884 -118.509570 174 5017ft 165kts
09-May-20 14:25 34.370517 -118.505651 175 4767ft 108kts
09-May-20 14:26 34.340979 -118.502859 173 4048ft 104kts
09-May-20 14:27 34.312413 -118.500117 173 3326ft 102kts
09-May-20 14:28 34.283985 -118.497412 173 2603ft 102kts
09-May-20 14:29 34.255929 -118.494760 173 1903ft 97kts
09-May-20 14:30 34.232771 -118.492677 173 1297ft 74kts
09-May-20 14:31 34.212138 -118.490645 175 817ft 71kts
09-May-20 14:32 34.206593 -118.491031 271 805ft 0kts
09-May-20 14:33 34.206738 -118.491231 335 805ft 12kts
09-May-20 14:34 34.211810 -118.491723 354 805ft 20kts
09-May-20 14:35 34.216824 -118.492982 283 805ft 13kts
09-May-20 14:36 34.217764 -118.494167 64 805ft 0kts
09-May-20 14:37 34.217764 -118.494167 64 805ft 0kts
09-May-20 14:38 34.217764 -118.494167 64 805ft 0kts
09-May-20 14:39 34.217764 -118.494167 64 805ft 0kts
09-May-20 14:40 34.217764 -118.494167 64 805ft 0kts

Navigation Log

Ident Type
Flight plan parsing failed, navigation log unavailable